sensor_id;sensor_type;location;lat;lon;timestamp;pressure;altitude;pressure_sealevel;temperature;humidity
6345;BME280;3205;42.666;23.264;2022-09-30T00:00:36;93896.75;;;14.00;100.00
6345;BME280;3205;42.666;23.264;2022-09-30T00:03:03;93913.44;;;13.97;100.00
6345;BME280;3205;42.666;23.264;2022-09-30T00:05:31;93907.72;;;13.95;100.00
6345;BME280;3205;42.666;23.264;2022-09-30T00:07:58;93908.09;;;13.93;100.00
6345;BME280;3205;42.666;23.264;2022-09-30T00:10:25;93912.63;;;13.93;100.00
6345;BME280;3205;42.666;23.264;2022-09-30T00:12:52;93907.22;;;13.86;100.00
6345;BME280;3205;42.666;23.264;2022-09-30T00:15:19;93897.34;;;13.83;100.00
6345;BME280;3205;42.666;23.264;2022-09-30T00:17:46;93902.72;;;13.90;100.00
6345;BME280;3205;42.666;23.264;2022-09-30T00:20:13;93910.25;;;13.84;100.00
6345;BME280;3205;42.666;23.264;2022-09-30T00:22:42;93909.88;;;13.86;100.00
6345;BME280;3205;42.666;23.264;2022-09-30T00:25:09;93917.09;;;13.85;100.00
6345;BME280;3205;42.666;23.264;2022-09-30T00:27:36;93915.53;;;13.81;100.00
6345;BME280;3205;42.666;23.264;2022-09-30T00:30:04;93921.25;;;13.83;100.00
6345;BME280;3205;42.666;23.264;2022-09-30T00:32:32;93921.59;;;13.81;100.00
6345;BME280;3205;42.666;23.264;2022-09-30T00:34:59;93918.59;;;13.83;100.00
6345;BME280;3205;42.666;23.264;2022-09-30T00:37:26;93910.97;;;13.81;100.00
6345;BME280;3205;42.666;23.264;2022-09-30T00:39:54;93908.69;;;13.80;100.00
6345;BME280;3205;42.666;23.264;2022-09-30T00:42:23;93912.47;;;13.79;100.00
6345;BME280;3205;42.666;23.264;2022-09-30T00:44:54;93892.69;;;13.76;100.00
6345;BME280;3205;42.666;23.264;2022-09-30T00:47:41;93897.94;;;13.69;100.00
6345;BME280;3205;42.666;23.264;2022-09-30T00:53:04;93910.00;;;13.63;100.00
6345;BME280;3205;42.666;23.264;2022-09-30T00:55:41;93903.47;;;13.54;100.00
6345;BME280;3205;42.666;23.264;2022-09-30T00:58:15;93900.34;;;13.48;100.00
6345;BME280;3205;42.666;23.264;2022-09-30T01:00:43;93904.53;;;13.49;100.00
6345;BME280;3205;42.666;23.264;2022-09-30T01:03:10;93909.13;;;13.52;100.00
6345;BME280;3205;42.666;23.264;2022-09-30T01:05:37;93908.31;;;13.48;100.00
6345;BME280;3205;42.666;23.264;2022-09-30T01:08:06;93914.41;;;13.49;100.00
6345;BME280;3205;42.666;23.264;2022-09-30T01:10:36;93909.13;;;13.52;100.00
6345;BME280;3205;42.666;23.264;2022-09-30T01:13:04;93905.28;;;13.50;100.00
6345;BME280;3205;42.666;23.264;2022-09-30T01:15:43;93894.28;;;13.48;100.00
6345;BME280;3205;42.666;23.264;2022-09-30T01:18:21;93902.91;;;13.41;100.00
6345;BME280;3205;42.666;23.264;2022-09-30T01:21:19;93904.00;;;13.37;100.00
6345;BME280;3205;42.666;23.264;2022-09-30T01:26:56;93924.00;;;13.31;100.00
6345;BME280;3205;42.666;23.264;2022-09-30T01:29:47;93916.06;;;13.31;100.00
6345;BME280;3205;42.666;23.264;2022-09-30T01:32:31;93910.75;;;13.31;100.00
6345;BME280;3205;42.666;23.264;2022-09-30T01:35:09;93912.22;;;13.29;100.00
6345;BME280;3205;42.666;23.264;2022-09-30T01:37:45;93917.06;;;13.23;100.00
6345;BME280;3205;42.666;23.264;2022-09-30T01:40:21;93918.19;;;13.19;100.00
6345;BME280;3205;42.666;23.264;2022-09-30T01:42:55;93917.44;;;13.22;100.00
6345;BME280;3205;42.666;23.264;2022-09-30T01:45:32;93913.22;;;13.17;100.00
6345;BME280;3205;42.666;23.264;2022-09-30T01:48:03;93915.06;;;13.13;100.00
6345;BME280;3205;42.666;23.264;2022-09-30T01:50:41;93916.19;;;13.12;100.00
6345;BME280;3205;42.666;23.264;2022-09-30T01:53:15;93916.88;;;13.09;100.00
6345;BME280;3205;42.666;23.264;2022-09-30T01:55:49;93914.56;;;13.04;100.00
6345;BME280;3205;42.666;23.264;2022-09-30T01:58:25;93922.50;;;13.04;100.00
6345;BME280;3205;42.666;23.264;2022-09-30T02:00:58;93920.13;;;12.96;100.00
6345;BME280;3205;42.666;23.264;2022-09-30T02:03:34;93903.22;;;12.81;100.00
6345;BME280;3205;42.666;23.264;2022-09-30T02:06:05;93911.31;;;12.88;100.00
6345;BME280;3205;42.666;23.264;2022-09-30T02:08:38;93923.09;;;12.91;100.00
6345;BME280;3205;42.666;23.264;2022-09-30T02:11:09;93922.72;;;12.92;100.00
6345;BME280;3205;42.666;23.264;2022-09-30T02:13:42;93927.97;;;12.89;100.00
6345;BME280;3205;42.666;23.264;2022-09-30T02:16:13;93929.44;;;12.86;100.00
6345;BME280;3205;42.666;23.264;2022-09-30T02:18:46;93921.84;;;12.85;100.00
6345;BME280;3205;42.666;23.264;2022-09-30T02:21:18;93933.50;;;12.80;100.00
6345;BME280;3205;42.666;23.264;2022-09-30T02:23:48;93933.16;;;12.82;100.00
6345;BME280;3205;42.666;23.264;2022-09-30T02:26:20;93931.91;;;12.76;100.00
6345;BME280;3205;42.666;23.264;2022-09-30T02:28:52;93943.34;;;12.80;100.00
6345;BME280;3205;42.666;23.264;2022-09-30T02:31:21;93940.00;;;12.83;100.00
6345;BME280;3205;42.666;23.264;2022-09-30T02:33:53;93934.69;;;12.83;100.00
6345;BME280;3205;42.666;23.264;2022-09-30T02:36:26;93931.19;;;12.79;100.00
6345;BME280;3205;42.666;23.264;2022-09-30T02:38:58;93927.31;;;12.73;100.00
6345;BME280;3205;42.666;23.264;2022-09-30T02:41:28;93922.31;;;12.68;100.00
6345;BME280;3205;42.666;23.264;2022-09-30T02:43:59;93930.69;;;12.70;100.00
6345;BME280;3205;42.666;23.264;2022-09-30T02:46:34;93921.53;;;12.64;100.00
6345;BME280;3205;42.666;23.264;2022-09-30T02:49:12;93923.94;;;12.50;100.00
6345;BME280;3205;42.666;23.264;2022-09-30T02:51:52;93923.59;;;12.52;100.00
6345;BME280;3205;42.666;23.264;2022-09-30T02:54:29;93931.13;;;12.50;100.00
6345;BME280;3205;42.666;23.264;2022-09-30T02:57:00;93929.94;;;12.47;100.00
6345;BME280;3205;42.666;23.264;2022-09-30T02:59:34;93932.59;;;12.47;100.00
6345;BME280;3205;42.666;23.264;2022-09-30T03:02:02;93938.25;;;12.46;100.00
6345;BME280;3205;42.666;23.264;2022-09-30T03:04:32;93933.88;;;12.57;100.00
6345;BME280;3205;42.666;23.264;2022-09-30T03:07:00;93947.06;;;12.53;100.00
6345;BME280;3205;42.666;23.264;2022-09-30T03:09:27;93953.34;;;12.64;100.00
6345;BME280;3205;42.666;23.264;2022-09-30T03:12:09;93952.41;;;12.79;100.00
6345;BME280;3205;42.666;23.264;2022-09-30T03:14:53;93946.91;;;12.87;100.00
6345;BME280;3205;42.666;23.264;2022-09-30T03:17:41;93952.75;;;13.00;100.00
6345;BME280;3205;42.666;23.264;2022-09-30T03:23:19;93942.00;;;13.15;100.00
6345;BME280;3205;42.666;23.264;2022-09-30T03:25:57;93946.72;;;13.29;100.00
6345;BME280;3205;42.666;23.264;2022-09-30T03:28:31;93945.28;;;13.34;100.00
6345;BME280;3205;42.666;23.264;2022-09-30T03:31:04;93950.44;;;13.50;100.00
6345;BME280;3205;42.666;23.264;2022-09-30T03:33:42;93949.00;;;13.56;100.00
6345;BME280;3205;42.666;23.264;2022-09-30T03:36:19;93943.69;;;13.56;100.00
6345;BME280;3205;42.666;23.264;2022-09-30T03:38:57;93939.13;;;13.56;100.00
6345;BME280;3205;42.666;23.264;2022-09-30T03:41:31;93941.50;;;13.65;100.00
6345;BME280;3205;42.666;23.264;2022-09-30T03:44:04;93936.19;;;13.65;100.00
6345;BME280;3205;42.666;23.264;2022-09-30T03:46:37;93953.72;;;13.69;100.00
6345;BME280;3205;42.666;23.264;2022-09-30T03:49:10;93967.78;;;13.73;100.00
6345;BME280;3205;42.666;23.264;2022-09-30T03:51:40;93966.66;;;13.74;100.00
6345;BME280;3205;42.666;23.264;2022-09-30T03:54:08;93976.59;;;13.77;100.00
6345;BME280;3205;42.666;23.264;2022-09-30T03:56:35;93965.97;;;13.77;100.00
6345;BME280;3205;42.666;23.264;2022-09-30T03:59:10;93973.19;;;13.80;100.00
6345;BME280;3205;42.666;23.264;2022-09-30T04:01:37;93976.16;;;13.75;100.00
6345;BME280;3205;42.666;23.264;2022-09-30T04:04:05;93973.97;;;13.81;100.00
6345;BME280;3205;42.666;23.264;2022-09-30T04:06:32;93966.75;;;13.81;100.00
6345;BME280;3205;42.666;23.264;2022-09-30T04:09:00;93967.25;;;13.90;100.00
6345;BME280;3205;42.666;23.264;2022-09-30T04:11:27;93958.19;;;13.95;100.00
6345;BME280;3205;42.666;23.264;2022-09-30T04:13:54;93962.00;;;13.97;100.00
6345;BME280;3205;42.666;23.264;2022-09-30T04:16:20;93954.44;;;13.99;100.00
6345;BME280;3205;42.666;23.264;2022-09-30T04:18:47;93950.50;;;13.86;100.00
6345;BME280;3205;42.666;23.264;2022-09-30T04:21:15;93962.69;;;13.91;100.00
6345;BME280;3205;42.666;23.264;2022-09-30T04:23:42;93955.88;;;13.90;100.00
6345;BME280;3205;42.666;23.264;2022-09-30T04:26:12;93944.94;;;13.98;100.00
6345;BME280;3205;42.666;23.264;2022-09-30T04:28:40;93964.13;;;13.85;100.00
6345;BME280;3205;42.666;23.264;2022-09-30T04:31:07;93974.50;;;13.93;100.00
6345;BME280;3205;42.666;23.264;2022-09-30T04:33:36;93978.19;;;13.85;100.00
6345;BME280;3205;42.666;23.264;2022-09-30T04:36:04;93978.66;;;13.94;100.00
6345;BME280;3205;42.666;23.264;2022-09-30T04:38:31;93965.72;;;13.89;100.00
6345;BME280;3205;42.666;23.264;2022-09-30T04:41:01;93975.53;;;13.85;100.00
6345;BME280;3205;42.666;23.264;2022-09-30T04:43:31;93975.94;;;13.87;100.00
6345;BME280;3205;42.666;23.264;2022-09-30T04:45:58;93980.50;;;13.87;100.00
6345;BME280;3205;42.666;23.264;2022-09-30T04:48:25;93997.63;;;13.93;100.00
6345;BME280;3205;42.666;23.264;2022-09-30T04:50:57;93987.13;;;14.03;100.00
6345;BME280;3205;42.666;23.264;2022-09-30T04:53:25;93993.53;;;13.99;100.00
6345;BME280;3205;42.666;23.264;2022-09-30T04:55:57;94008.44;;;14.07;100.00
6345;BME280;3205;42.666;23.264;2022-09-30T04:58:25;94013.03;;;14.09;100.00
6345;BME280;3205;42.666;23.264;2022-09-30T05:01:00;94004.72;;;14.11;100.00
6345;BME280;3205;42.666;23.264;2022-09-30T05:03:27;94015.34;;;14.11;100.00
6345;BME280;3205;42.666;23.264;2022-09-30T05:05:54;94007.78;;;14.13;100.00
6345;BME280;3205;42.666;23.264;2022-09-30T05:08:21;94009.75;;;14.19;100.00
6345;BME280;3205;42.666;23.264;2022-09-30T05:10:53;93995.78;;;14.26;100.00
6345;BME280;3205;42.666;23.264;2022-09-30T05:13:22;93998.16;;;14.34;100.00
6345;BME280;3205;42.666;23.264;2022-09-30T05:15:49;94017.19;;;14.40;100.00
6345;BME280;3205;42.666;23.264;2022-09-30T05:18:17;94024.91;;;14.52;100.00
6345;BME280;3205;42.666;23.264;2022-09-30T05:20:47;94020.00;;;14.54;100.00
6345;BME280;3205;42.666;23.264;2022-09-30T05:23:14;94019.66;;;14.59;100.00
6345;BME280;3205;42.666;23.264;2022-09-30T05:25:41;94029.16;;;14.56;100.00
6345;BME280;3205;42.666;23.264;2022-09-30T05:28:08;94026.56;;;14.63;100.00
6345;BME280;3205;42.666;23.264;2022-09-30T05:30:35;94018.25;;;14.68;100.00
6345;BME280;3205;42.666;23.264;2022-09-30T05:33:03;94020.88;;;14.65;100.00
6345;BME280;3205;42.666;23.264;2022-09-30T05:35:33;94024.06;;;14.81;100.00
6345;BME280;3205;42.666;23.264;2022-09-30T05:38:00;94034.44;;;14.92;100.00
6345;BME280;3205;42.666;23.264;2022-09-30T05:40:27;94048.88;;;14.91;100.00
6345;BME280;3205;42.666;23.264;2022-09-30T05:42:55;94042.03;;;14.94;100.00
6345;BME280;3205;42.666;23.264;2022-09-30T05:45:22;94039.03;;;14.99;100.00
6345;BME280;3205;42.666;23.264;2022-09-30T05:47:52;94043.22;;;15.00;100.00
6345;BME280;3205;42.666;23.264;2022-09-30T05:50:19;94041.00;;;15.05;100.00
6345;BME280;3205;42.666;23.264;2022-09-30T05:52:48;94053.91;;;15.03;100.00
6345;BME280;3205;42.666;23.264;2022-09-30T05:55:15;94054.91;;;15.25;100.00
6345;BME280;3205;42.666;23.264;2022-09-30T05:57:42;94044.50;;;15.66;100.00
6345;BME280;3205;42.666;23.264;2022-09-30T06:00:12;94050.47;;;16.10;100.00
6345;BME280;3205;42.666;23.264;2022-09-30T06:02:39;94049.75;;;16.17;100.00
6345;BME280;3205;42.666;23.264;2022-09-30T06:05:07;94066.38;;;15.93;100.00
6345;BME280;3205;42.666;23.264;2022-09-30T06:07:35;94064.75;;;15.78;100.00
6345;BME280;3205;42.666;23.264;2022-09-30T06:10:05;94075.50;;;15.88;100.00
6345;BME280;3205;42.666;23.264;2022-09-30T06:12:33;94069.09;;;16.00;100.00
6345;BME280;3205;42.666;23.264;2022-09-30T06:15:01;94069.81;;;15.90;100.00
6345;BME280;3205;42.666;23.264;2022-09-30T06:17:28;94081.84;;;15.70;100.00
6345;BME280;3205;42.666;23.264;2022-09-30T06:19:55;94079.50;;;15.61;100.00
6345;BME280;3205;42.666;23.264;2022-09-30T06:22:22;94083.69;;;15.59;100.00
6345;BME280;3205;42.666;23.264;2022-09-30T06:24:48;94094.59;;;15.44;100.00
6345;BME280;3205;42.666;23.264;2022-09-30T06:27:17;94093.88;;;15.50;100.00
6345;BME280;3205;42.666;23.264;2022-09-30T06:29:43;94101.38;;;15.84;100.00
6345;BME280;3205;42.666;23.264;2022-09-30T06:32:10;94101.13;;;16.10;100.00
6345;BME280;3205;42.666;23.264;2022-09-30T06:34:37;94107.38;;;16.32;100.00
6345;BME280;3205;42.666;23.264;2022-09-30T06:37:04;94109.00;;;16.53;100.00
6345;BME280;3205;42.666;23.264;2022-09-30T06:39:31;94125.53;;;16.90;100.00
6345;BME280;3205;42.666;23.264;2022-09-30T06:41:58;94124.88;;;17.77;100.00
6345;BME280;3205;42.666;23.264;2022-09-30T06:44:26;94132.94;;;19.14;100.00
6345;BME280;3205;42.666;23.264;2022-09-30T06:46:53;94169.25;;;20.30;100.00
6345;BME280;3205;42.666;23.264;2022-09-30T06:49:20;94201.03;;;20.35;100.00
6345;BME280;3205;42.666;23.264;2022-09-30T06:51:47;94212.84;;;19.98;100.00
6345;BME280;3205;42.666;23.264;2022-09-30T06:54:15;94216.13;;;18.59;100.00
6345;BME280;3205;42.666;23.264;2022-09-30T06:56:43;94214.66;;;18.02;100.00
6345;BME280;3205;42.666;23.264;2022-09-30T06:59:10;94210.59;;;19.25;100.00
6345;BME280;3205;42.666;23.264;2022-09-30T07:01:39;94218.31;;;20.34;100.00
6345;BME280;3205;42.666;23.264;2022-09-30T07:04:09;94245.59;;;22.48;100.00
6345;BME280;3205;42.666;23.264;2022-09-30T07:06:36;94280.53;;;23.20;100.00
6345;BME280;3205;42.666;23.264;2022-09-30T07:09:03;94305.47;;;22.82;100.00
6345;BME280;3205;42.666;23.264;2022-09-30T07:11:30;94306.84;;;21.92;100.00
6345;BME280;3205;42.666;23.264;2022-09-30T07:13:57;94297.44;;;21.40;100.00
6345;BME280;3205;42.666;23.264;2022-09-30T07:16:24;94284.47;;;21.02;100.00
6345;BME280;3205;42.666;23.264;2022-09-30T07:18:52;94285.84;;;21.13;100.00
6345;BME280;3205;42.666;23.264;2022-09-30T07:21:19;94293.34;;;21.32;100.00
6345;BME280;3205;42.666;23.264;2022-09-30T07:23:46;94300.94;;;21.70;100.00
6345;BME280;3205;42.666;23.264;2022-09-30T07:26:13;94303.13;;;21.82;100.00
6345;BME280;3205;42.666;23.264;2022-09-30T07:28:41;94305.75;;;21.56;100.00
6345;BME280;3205;42.666;23.264;2022-09-30T07:31:11;94319.28;;;21.46;100.00
6345;BME280;3205;42.666;23.264;2022-09-30T07:33:38;94322.44;;;22.34;100.00
6345;BME280;3205;42.666;23.264;2022-09-30T07:36:07;94332.38;;;22.63;100.00
6345;BME280;3205;42.666;23.264;2022-09-30T07:38:37;94339.75;;;22.33;100.00
6345;BME280;3205;42.666;23.264;2022-09-30T07:41:06;94331.63;;;22.36;100.00
6345;BME280;3205;42.666;23.264;2022-09-30T07:43:34;94329.19;;;24.14;100.00
6345;BME280;3205;42.666;23.264;2022-09-30T07:46:05;94352.41;;;26.52;100.00
6345;BME280;3205;42.666;23.264;2022-09-30T07:48:33;94365.94;;;27.14;100.00
6345;BME280;3205;42.666;23.264;2022-09-30T07:51:10;94359.72;;;29.06;100.00
6345;BME280;3205;42.666;23.264;2022-09-30T07:53:38;94369.81;;;30.84;95.20
6345;BME280;3205;42.666;23.264;2022-09-30T07:56:05;94371.06;;;31.71;82.33
6345;BME280;3205;42.666;23.264;2022-09-30T07:58:33;94378.16;;;33.02;74.86
6345;BME280;3205;42.666;23.264;2022-09-30T08:00:59;94384.09;;;33.49;68.15
6345;BME280;3205;42.666;23.264;2022-09-30T08:03:27;94400.03;;;33.65;66.95
6345;BME280;3205;42.666;23.264;2022-09-30T08:05:54;94396.28;;;34.73;61.61
6345;BME280;3205;42.666;23.264;2022-09-30T08:08:22;94388.88;;;35.09;60.56
6345;BME280;3205;42.666;23.264;2022-09-30T08:10:49;94394.84;;;35.08;57.98
6345;BME280;3205;42.666;23.264;2022-09-30T08:13:16;94397.66;;;35.13;58.80
6345;BME280;3205;42.666;23.264;2022-09-30T08:15:44;94403.78;;;35.70;56.00
6345;BME280;3205;42.666;23.264;2022-09-30T08:18:11;94403.06;;;35.75;54.78
6345;BME280;3205;42.666;23.264;2022-09-30T08:20:38;94410.53;;;35.69;50.45
6345;BME280;3205;42.666;23.264;2022-09-30T08:23:04;94416.81;;;35.02;54.24
6345;BME280;3205;42.666;23.264;2022-09-30T08:25:32;94406.84;;;33.21;58.56
6345;BME280;3205;42.666;23.264;2022-09-30T08:28:00;94418.19;;;31.66;67.51
6345;BME280;3205;42.666;23.264;2022-09-30T08:30:26;94418.19;;;31.66;73.18
6345;BME280;3205;42.666;23.264;2022-09-30T08:32:53;94413.28;;;31.38;74.07
6345;BME280;3205;42.666;23.264;2022-09-30T08:35:20;94414.88;;;32.52;68.03
6345;BME280;3205;42.666;23.264;2022-09-30T08:37:47;94409.97;;;30.24;77.83
6345;BME280;3205;42.666;23.264;2022-09-30T08:40:21;94423.56;;;31.75;79.13
6345;BME280;3205;42.666;23.264;2022-09-30T08:43:01;94418.03;;;32.74;72.83
6345;BME280;3205;42.666;23.264;2022-09-30T08:45:40;94422.34;;;32.51;66.94
6345;BME280;3205;42.666;23.264;2022-09-30T08:48:30;94417.00;;;32.05;71.55
6345;BME280;3205;42.666;23.264;2022-09-30T08:51:08;94424.78;;;31.74;70.96
6345;BME280;3205;42.666;23.264;2022-09-30T08:53:45;94423.69;;;30.84;77.74
6345;BME280;3205;42.666;23.264;2022-09-30T08:56:19;94426.50;;;29.94;81.84
6345;BME280;3205;42.666;23.264;2022-09-30T08:58:51;94412.88;;;29.94;89.21
6345;BME280;3205;42.666;23.264;2022-09-30T09:01:24;94415.00;;;30.17;85.07
6345;BME280;3205;42.666;23.264;2022-09-30T09:03:56;94425.75;;;29.94;84.10
6345;BME280;3205;42.666;23.264;2022-09-30T09:06:27;94436.28;;;29.17;83.24
6345;BME280;3205;42.666;23.264;2022-09-30T09:09:13;94432.16;;;29.03;92.67
6345;BME280;3205;42.666;23.264;2022-09-30T09:12:05;94435.25;;;29.62;91.16
6345;BME280;3205;42.666;23.264;2022-09-30T09:14:47;94430.91;;;30.01;91.66
6345;BME280;3205;42.666;23.264;2022-09-30T09:17:29;94434.69;;;30.12;84.82
6345;BME280;3205;42.666;23.264;2022-09-30T09:20:06;94433.00;;;29.79;86.53
6345;BME280;3205;42.666;23.264;2022-09-30T09:22:34;94456.75;;;29.30;90.89
6345;BME280;3205;42.666;23.264;2022-09-30T09:25:03;94454.38;;;30.25;83.68
6345;BME280;3205;42.666;23.264;2022-09-30T09:27:38;94442.47;;;30.82;81.62
6345;BME280;3205;42.666;23.264;2022-09-30T09:30:11;94440.91;;;30.48;83.36
6345;BME280;3205;42.666;23.264;2022-09-30T09:32:39;94441.53;;;30.08;88.81
6345;BME280;3205;42.666;23.264;2022-09-30T09:35:13;94443.31;;;30.19;86.86
6345;BME280;3205;42.666;23.264;2022-09-30T09:37:47;94425.09;;;29.15;94.10
6345;BME280;3205;42.666;23.264;2022-09-30T09:40:40;94427.63;;;28.49;95.62
6345;BME280;3205;42.666;23.264;2022-09-30T09:43:27;94435.47;;;28.98;94.60
6345;BME280;3205;42.666;23.264;2022-09-30T09:46:04;94442.25;;;29.33;88.33
6345;BME280;3205;42.666;23.264;2022-09-30T09:48:37;94441.97;;;29.40;88.81
6345;BME280;3205;42.666;23.264;2022-09-30T09:51:11;94432.19;;;29.60;86.85
6345;BME280;3205;42.666;23.264;2022-09-30T09:53:46;94425.09;;;29.15;86.19
6345;BME280;3205;42.666;23.264;2022-09-30T09:56:16;94423.72;;;27.94;93.81
6345;BME280;3205;42.666;23.264;2022-09-30T09:59:09;94424.13;;;26.88;100.00
6345;BME280;3205;42.666;23.264;2022-09-30T10:01:40;94431.47;;;26.63;100.00
6345;BME280;3205;42.666;23.264;2022-09-30T10:04:11;94429.13;;;26.36;100.00
6345;BME280;3205;42.666;23.264;2022-09-30T10:06:45;94440.16;;;25.73;100.00
6345;BME280;3205;42.666;23.264;2022-09-30T10:09:30;94446.09;;;25.04;100.00
6345;BME280;3205;42.666;23.264;2022-09-30T10:12:18;94440.28;;;24.55;100.00
6345;BME280;3205;42.666;23.264;2022-09-30T10:15:00;94431.97;;;24.46;100.00
6345;BME280;3205;42.666;23.264;2022-09-30T10:17:31;94417.75;;;24.42;100.00
6345;BME280;3205;42.666;23.264;2022-09-30T10:20:03;94430.22;;;24.55;100.00
6345;BME280;3205;42.666;23.264;2022-09-30T10:22:33;94410.34;;;24.46;100.00
6345;BME280;3205;42.666;23.264;2022-09-30T10:25:17;94423.00;;;24.49;100.00
6345;BME280;3205;42.666;23.264;2022-09-30T10:27:52;94418.38;;;24.49;100.00
6345;BME280;3205;42.666;23.264;2022-09-30T10:30:42;94417.75;;;24.42;100.00
6345;BME280;3205;42.666;23.264;2022-09-30T10:33:15;94419.69;;;24.41;100.00
6345;BME280;3205;42.666;23.264;2022-09-30T10:35:56;94418.72;;;24.51;100.00
6345;BME280;3205;42.666;23.264;2022-09-30T10:38:27;94409.25;;;24.59;100.00
6345;BME280;3205;42.666;23.264;2022-09-30T10:40:57;94411.66;;;24.73;100.00
6345;BME280;3205;42.666;23.264;2022-09-30T10:43:28;94410.47;;;24.74;100.00
6345;BME280;3205;42.666;23.264;2022-09-30T10:45:57;94412.25;;;24.65;100.00
6345;BME280;3205;42.666;23.264;2022-09-30T10:48:32;94414.59;;;24.63;100.00
6345;BME280;3205;42.666;23.264;2022-09-30T10:50:59;94409.91;;;24.47;100.00
6345;BME280;3205;42.666;23.264;2022-09-30T10:53:28;94418.53;;;24.42;100.00
6345;BME280;3205;42.666;23.264;2022-09-30T10:55:56;94410.28;;;24.49;100.00
6345;BME280;3205;42.666;23.264;2022-09-30T10:58:33;94405.97;;;24.52;100.00
6345;BME280;3205;42.666;23.264;2022-09-30T11:01:06;94429.72;;;24.60;100.00
6345;BME280;3205;42.666;23.264;2022-09-30T11:03:53;94424.66;;;24.62;100.00
6345;BME280;3205;42.666;23.264;2022-09-30T11:06:21;94429.22;;;24.65;100.00
6345;BME280;3205;42.666;23.264;2022-09-30T11:08:55;94426.94;;;24.64;98.36
6345;BME280;3205;42.666;23.264;2022-09-30T11:11:26;94429.13;;;24.69;94.82
6345;BME280;3205;42.666;23.264;2022-09-30T11:13:58;94416.38;;;24.69;84.12
6345;BME280;3205;42.666;23.264;2022-09-30T11:16:32;94413.75;;;24.66;92.29
6345;BME280;3205;42.666;23.264;2022-09-30T11:19:09;94424.50;;;24.69;89.41
6345;BME280;3205;42.666;23.264;2022-09-30T11:21:44;94424.06;;;24.71;92.65
6345;BME280;3205;42.666;23.264;2022-09-30T11:24:20;94423.25;;;24.73;97.70
6345;BME280;3205;42.666;23.264;2022-09-30T11:26:57;94426.19;;;24.79;94.19
6345;BME280;3205;42.666;23.264;2022-09-30T11:29:35;94424.25;;;24.79;91.94
6345;BME280;3205;42.666;23.264;2022-09-30T11:32:14;94420.63;;;24.86;95.92
6345;BME280;3205;42.666;23.264;2022-09-30T11:34:57;94421.47;;;24.83;93.89
6345;BME280;3205;42.666;23.264;2022-09-30T11:40:30;94426.31;;;24.91;95.30
6345;BME280;3205;42.666;23.264;2022-09-30T11:43:07;94428.09;;;24.98;84.33
6345;BME280;3205;42.666;23.264;2022-09-30T11:45:55;94423.59;;;24.91;86.29
6345;BME280;3205;42.666;23.264;2022-09-30T11:48:37;94429.69;;;24.95;92.64
6345;BME280;3205;42.666;23.264;2022-09-30T11:51:18;94425.31;;;25.01;96.98
6345;BME280;3205;42.666;23.264;2022-09-30T11:53:55;94424.34;;;25.08;100.00
6345;BME280;3205;42.666;23.264;2022-09-30T11:56:39;94423.22;;;25.09;98.02
6345;BME280;3205;42.666;23.264;2022-09-30T11:59:15;94429.78;;;25.08;98.74
6345;BME280;3205;42.666;23.264;2022-09-30T12:01:46;94431.72;;;25.07;91.77
6345;BME280;3205;42.666;23.264;2022-09-30T12:04:19;94434.38;;;25.11;96.78
6345;BME280;3205;42.666;23.264;2022-09-30T12:06:55;94437.66;;;25.18;97.92
6345;BME280;3205;42.666;23.264;2022-09-30T12:09:25;94446.31;;;25.13;100.00
6345;BME280;3205;42.666;23.264;2022-09-30T12:11:56;94450.84;;;25.16;99.94
6345;BME280;3205;42.666;23.264;2022-09-30T12:14:30;94442.31;;;25.18;98.79
6345;BME280;3205;42.666;23.264;2022-09-30T12:17:01;94444.69;;;25.32;94.95
6345;BME280;3205;42.666;23.264;2022-09-30T12:19:36;94445.53;;;25.45;92.36
6345;BME280;3205;42.666;23.264;2022-09-30T12:22:10;94434.94;;;25.50;87.15
6345;BME280;3205;42.666;23.264;2022-09-30T12:24:40;94448.53;;;25.62;88.55
6345;BME280;3205;42.666;23.264;2022-09-30T12:27:14;94447.63;;;25.69;85.41
6345;BME280;3205;42.666;23.264;2022-09-30T12:29:49;94455.66;;;25.72;90.23
6345;BME280;3205;42.666;23.264;2022-09-30T12:33:04;94450.06;;;25.63;88.05
6345;BME280;3205;42.666;23.264;2022-09-30T12:35:47;94452.03;;;25.47;89.97
6345;BME280;3205;42.666;23.264;2022-09-30T12:38:36;94458.63;;;25.30;92.84
6345;BME280;3205;42.666;23.264;2022-09-30T12:41:23;94461.28;;;25.18;96.36
6345;BME280;3205;42.666;23.264;2022-09-30T12:44:14;94454.94;;;25.08;91.51
6345;BME280;3205;42.666;23.264;2022-09-30T12:47:02;94450.22;;;24.93;97.66
6345;BME280;3205;42.666;23.264;2022-09-30T12:49:35;94458.00;;;24.91;96.86
6345;BME280;3205;42.666;23.264;2022-09-30T12:52:06;94446.75;;;24.92;95.37
6345;BME280;3205;42.666;23.264;2022-09-30T12:54:41;94452.91;;;24.77;89.95
6345;BME280;3205;42.666;23.264;2022-09-30T12:57:09;94453.88;;;24.67;90.82
6345;BME280;3205;42.666;23.264;2022-09-30T12:59:42;94456.59;;;24.67;96.48
6345;BME280;3205;42.666;23.264;2022-09-30T13:02:27;94462.06;;;24.64;97.39
6345;BME280;3205;42.666;23.264;2022-09-30T13:05:43;94463.00;;;24.57;99.96
6345;BME280;3205;42.666;23.264;2022-09-30T13:08:46;94458.34;;;24.58;96.67
6345;BME280;3205;42.666;23.264;2022-09-30T13:11:34;94467.03;;;24.49;99.48
6345;BME280;3205;42.666;23.264;2022-09-30T13:14:13;94457.50;;;24.41;98.32
6345;BME280;3205;42.666;23.264;2022-09-30T13:17:03;94453.56;;;24.26;96.19
6345;BME280;3205;42.666;23.264;2022-09-30T13:19:52;94460.28;;;24.18;99.75
6345;BME280;3205;42.666;23.264;2022-09-30T13:22:53;94458.00;;;24.17;98.80
6345;BME280;3205;42.666;23.264;2022-09-30T13:25:20;94459.25;;;24.12;99.94
6345;BME280;3205;42.666;23.264;2022-09-30T13:27:50;94457.38;;;24.09;100.00
6345;BME280;3205;42.666;23.264;2022-09-30T13:30:39;94456.28;;;24.07;95.33
6345;BME280;3205;42.666;23.264;2022-09-30T13:33:39;94458.22;;;24.06;89.27
6345;BME280;3205;42.666;23.264;2022-09-30T13:36:16;94469.84;;;24.03;95.26
6345;BME280;3205;42.666;23.264;2022-09-30T13:39:05;94467.03;;;24.10;91.78
6345;BME280;3205;42.666;23.264;2022-09-30T13:41:35;94466.38;;;24.03;92.43
6345;BME280;3205;42.666;23.264;2022-09-30T13:44:07;94466.75;;;24.05;87.94